Terminal Aerodrome Forecast
Issued by NWS

Current Version | Previous Version | Text Only | Print | Product List | Glossary On
Versions: 1 2 3 4 5 6 7 8 9 10 11 12 13 14 15 16 17 18 19 20 21 22 23 24 25 26 27 28 29 30 31 32
000 FTUS41 KBOX 012327 TAFBAF TAF KBAF 012327Z 0200/0224 18004KT 1 1/2SM -SN OVC015 TEMPO 0200/0203 3/4SM -SN OVC010 FM020400 00000KT 4SM -SN OVC025 FM020600 00000KT P6SM OVC035 FM021300 31007KT P6SM BKN050 FM021500 31012G24KT P6SM SCT050=

USA.gov is the U.S. government's official web portal to all federal, state and local government web resources and services.